LS Concorde — ZDHJ7 — position and weather

sailwx.info

Track history (hours):
 
Tides and Currents Weather Stations Pressure Air Temp Water Temp Dewpoint Dewpoint Depression Visibility Wind Speed Wind Dir Waves Ship Positions

LS Concorde

Last reported at 2016-Aug-25 00:31 UTC. Time now 2016-Aug-25 00:55 UTC.
Position N 49°28' W 000°05'.

Length 99 m; draft 6.5 m.

Type: Tanker. MMSI: 236329000.

Date/timePositionNaut miles runAvg speedWind from/ knotsBaromVisibWave heightAir tempDewpointWater temp
2016-Aug-25 00:31N 49°28' W 000°05'0 0.1
2016-Aug-24 23:31N 49°28' W 000°05'0 0.1
2016-Aug-24 22:31N 49°28' W 000°05'0 0.0
2016-Aug-24 21:31N 49°28' W 000°05'0 0.0
2016-Aug-24 20:31N 49°28' W 000°05'0 0.0
2016-Aug-24 19:31N 49°28' W 000°05'0 0.0
2016-Aug-24 18:31N 49°28' W 000°05'0 0.0
2016-Aug-24 17:31N 49°28' W 000°05'0 0.1
2016-Aug-24 16:31N 49°28' W 000°05'0 0.1
2016-Aug-24 15:31N 49°28' W 000°05'0 0.0
2016-Aug-24 14:31N 49°28' W 000°05'0 0.0
2016-Aug-24 13:28N 49°28' W 000°05'0 0.0
2016-Aug-24 12:31N 49°28' W 000°05'0 0.0
2016-Aug-24 11:31N 49°28' W 000°05'0 0.1
2016-Aug-24 10:31N 49°28' W 000°05'0 0.1
2016-Aug-24 09:31N 49°28' W 000°05'0 0.0
2016-Aug-24 08:31N 49°28' W 000°05'0 0.0
2016-Aug-24 07:31N 49°28' W 000°05'0 0.0
2016-Aug-24 06:31N 49°28' W 000°05'0 0.0
2016-Aug-24 04:31N 49°28' W 000°05'0 0.1
2016-Aug-24 03:31N 49°28' W 000°05'0 0.0
2016-Aug-24 02:31N 49°28' W 000°05'0 0.0
2016-Aug-24 01:31N 49°28' W 000°05'0 0.0
2016-Aug-24 00:31N 49°28' W 000°05'0 0.0
2016-Aug-23 23:31N 49°28' W 000°05'0 0.0
2016-Aug-23 22:31N 49°28' W 000°05'0 0.1
2016-Aug-23 21:31N 49°28' W 000°05'0 0.0
2016-Aug-23 20:31N 49°28' W 000°05'0 0.0
2016-Aug-23 19:31N 49°28' W 000°05'0 0.0
2016-Aug-23 18:31N 49°28' W 000°05'0 0.0
2016-Aug-23 17:31N 49°28' W 000°05'0 0.0
2016-Aug-23 16:31N 49°28' W 000°05'0 0.0
2016-Aug-23 15:31N 49°28' W 000°05'0 0.1
2016-Aug-23 14:28N 49°28' W 000°05'0 0.0
2016-Aug-23 13:31N 49°28' W 000°05'0 0.0
2016-Aug-23 12:31N 49°28' W 000°05'0 0.0
2016-Aug-23 11:31N 49°28' W 000°05'0 0.0
2016-Aug-23 10:31N 49°28' W 000°05'0 0.0
2016-Aug-23 09:31N 49°28' W 000°05'0 0.1
2016-Aug-23 08:31N 49°28' W 000°05'0 0.0
2016-Aug-23 07:31N 49°28' W 000°05'0 0.0
2016-Aug-23 06:31N 49°28' W 000°05'0 0.0
2016-Aug-23 05:31N 49°28' W 000°05'0 0.0
2016-Aug-23 04:31N 49°28' W 000°05'0 0.0
2016-Aug-23 03:31N 49°28' W 000°05'0 0.0
2016-Aug-23 02:31N 49°28' W 000°05'0 0.1
2016-Aug-23 01:31N 49°28' W 000°05'0 0.0
2016-Aug-23 00:28N 49°28' W 000°05'0 0.0
2016-Aug-22 23:33N 49°28' W 000°05'0 0.0
2016-Aug-22 22:33N 49°28' W 000°05'0 0.1
2016-Aug-22 21:33N 49°28' W 000°05'0 0.1
2016-Aug-22 20:33N 49°28' W 000°05'0 0.0
2016-Aug-22 19:33N 49°28' W 000°05'0 0.0
2016-Aug-22 18:33N 49°28' W 000°05'0 0.0
2016-Aug-22 17:33N 49°28' W 000°05'0 0.0
2016-Aug-22 16:33N 49°28' W 000°05'0 0.0
2016-Aug-22 15:33N 49°28' W 000°05'0 0.1
2016-Aug-22 14:33N 49°28' W 000°05'0 0.1
2016-Aug-22 13:33N 49°28' W 000°05'0 0.0
2016-Aug-22 12:33N 49°28' W 000°05'0 0.0
2016-Aug-22 11:33N 49°28' W 000°05'0 0.0
2016-Aug-22 10:33N 49°28' W 000°05'1 0.9
2016-Aug-22 09:34N 49°29' W 000°06'9 9.0
2016-Aug-22 08:33N 49°38' W 000°10'1110.7
2016-Aug-22 07:34N 49°48' W 000°08'9 8.8
2016-Aug-22 06:34N 49°57' W 000°07'9 8.9
2016-Aug-22 05:33N 50°06' W 000°06'10 9.5
2016-Aug-22 04:33N 50°15' W 000°05'1111.0
2016-Aug-22 03:33N 50°26' W 000°03'1010.4
2016-Aug-22 02:33N 50°30' E 000°12'38 9.0
2016-Aug-21 22:19N 50°47' E 001°06'7 9.4
2016-Aug-21 21:31N 50°51' E 001°16'9 9.7
2016-Aug-21 20:33N 50°59' E 001°24'10 9.9
2016-Aug-21 19:34N 51°06' E 001°35'1110.7
2016-Aug-21 18:34N 51°14' E 001°47'10 9.8
2016-Aug-21 17:33N 51°22' E 001°55'10 9.7
2016-Aug-21 16:34N 51°30' E 002°04'9 9.3
2016-Aug-21 15:34N 51°37' E 002°14'57 9.4
2016-Aug-21 09:32N 52°03' E 003°35'10 9.9
2016-Aug-21 08:34N 52°03' E 003°51'9 8.5
2016-Aug-21 07:34N 51°59' E 004°04'1211.8
2016-Aug-21 06:34N 51°54' E 004°21'1 1.4
2016-Aug-21 05:33N 51°53' E 004°23'0 0.0
2016-Aug-21 04:30N 51°53' E 004°23'0 0.0
2016-Aug-21 03:32N 51°53' E 004°23'0 0.0
2016-Aug-21 02:33N 51°53' E 004°23'0 0.0
2016-Aug-21 01:32N 51°53' E 004°23'0 0.0
2016-Aug-21 00:33N 51°53' E 004°23'0 0.0
2016-Aug-20 23:32N 51°53' E 004°23'0 0.0
2016-Aug-20 22:32N 51°53' E 004°23'0 0.0
2016-Aug-20 21:32N 51°53' E 004°23'0 0.0
2016-Aug-20 20:32N 51°53' E 004°23'0 0.0
2016-Aug-20 19:32N 51°53' E 004°23'0 0.0
2016-Aug-20 18:32N 51°53' E 004°23'0 0.0
2016-Aug-20 17:33N 51°53' E 004°23'0 0.0
2016-Aug-20 16:33N 51°53' E 004°23'0 0.0
2016-Aug-20 15:32N 51°53' E 004°23'0 0.0
2016-Aug-20 14:33N 51°53' E 004°23'0 0.0
2016-Aug-20 13:33N 51°53' E 004°23'0 0.0
2016-Aug-20 12:32N 51°53' E 004°23'0 0.0
2016-Aug-20 11:31N 51°53' E 004°23'0 0.0
2016-Aug-20 10:32N 51°53' E 004°23'0 0.0
2016-Aug-20 09:31N 51°53' E 004°23'0 0.0
2016-Aug-20 08:32N 51°53' E 004°23'0 0.0
2016-Aug-20 07:33N 51°53' E 004°23'0 0.0
2016-Aug-20 06:32N 51°53' E 004°23'0 0.0
2016-Aug-20 05:32N 51°53' E 004°23'0 0.0
2016-Aug-20 04:33N 51°53' E 004°23'0 0.0
2016-Aug-20 03:32N 51°53' E 004°23'0 0.0
2016-Aug-20 02:33N 51°53' E 004°23'0 0.0
2016-Aug-20 01:34N 51°53' E 004°23'4 4.3
2016-Aug-20 00:34N 51°54' E 004°16'1110.9
2016-Aug-19 23:33N 51°60' E 004°01'1010.2
2016-Aug-19 22:33N 51°58' E 003°44'1 1.0
2016-Aug-19 21:33N 51°57' E 003°44'0 0.0
2016-Aug-19 20:31N 51°57' E 003°44'0 0.1
2016-Aug-19 19:31N 51°57' E 003°44'0 0.0
2016-Aug-19 17:28N 51°57' E 003°44'0 0.0
2016-Aug-19 15:30N 51°57' E 003°44'0 0.0
2016-Aug-19 14:24N 51°57' E 003°44'0 0.0
2016-Aug-19 13:25N 51°57' E 003°44'0 0.1
2016-Aug-19 12:30N 51°57' E 003°44'0 0.1
2016-Aug-19 11:30N 51°57' E 003°44'0 0.0
2016-Aug-19 10:33N 51°57' E 003°44'0 0.0
2016-Aug-19 09:22N 51°57' E 003°44'0 0.0
2016-Aug-19 08:30N 51°57' E 003°44'0 0.0
2016-Aug-19 07:33N 51°57' E 003°44'0 0.0
2016-Aug-19 06:33N 51°57' E 003°44'0 0.0
2016-Aug-19 05:33N 51°57' E 003°44'0 0.1
2016-Aug-19 04:31N 51°57' E 003°44'0 0.0
2016-Aug-19 03:33N 51°57' E 003°44'0 0.0
2016-Aug-19 02:31N 51°57' E 003°44'0 0.0
2016-Aug-19 01:30N 51°57' E 003°44'0 0.1
2016-Aug-19 00:33N 51°57' E 003°44'0 0.0
2016-Aug-18 23:30N 51°57' E 003°44'0 0.0
2016-Aug-18 22:28N 51°57' E 003°44'0 0.0
2016-Aug-18 21:33N 51°57' E 003°44'0 0.0
2016-Aug-18 20:30N 51°57' E 003°44'0 0.0
2016-Aug-18 19:33N 51°57' E 003°44'0 0.0
2016-Aug-18 18:27N 51°57' E 003°44'0 0.0
2016-Aug-18 17:33N 51°57' E 003°44'0 0.0
2016-Aug-18 16:33N 51°57' E 003°44'0 0.1
2016-Aug-18 15:33N 51°57' E 003°44'0 0.0
2016-Aug-18 14:33N 51°57' E 003°44'0 0.0
2016-Aug-18 13:33N 51°57' E 003°44'0 0.1
2016-Aug-18 12:33N 51°57' E 003°44'0 0.1
2016-Aug-18 11:33N 51°57' E 003°44'0 0.0
2016-Aug-18 10:33N 51°57' E 003°44'0 0.0
2016-Aug-18 09:31N 51°57' E 003°44'0 0.0
2016-Aug-18 08:31N 51°57' E 003°44'0 0.0
2016-Aug-18 07:33N 51°57' E 003°44'0 0.0
2016-Aug-18 06:33N 51°57' E 003°44'0 0.0
2016-Aug-18 05:34N 51°57' E 003°44'0 0.0
2016-Aug-18 04:33N 51°57' E 003°44'0 0.1
2016-Aug-18 03:33N 51°57' E 003°44'0 0.0
2016-Aug-18 02:34N 51°57' E 003°44'0 0.0
2016-Aug-18 01:33N 51°57' E 003°44'0 0.0
2016-Aug-18 00:21N 51°57' E 003°44'0 0.1
2016-Aug-17 23:31N 51°57' E 003°44'0 0.0
2016-Aug-17 22:31N 51°57' E 003°44'0 0.0
2016-Aug-17 21:33N 51°57' E 003°44'0 0.0
2016-Aug-17 20:28N 51°57' E 003°44'0 0.0
2016-Aug-17 19:33N 51°57' E 003°44'0 0.0
2016-Aug-17 18:33N 51°57' E 003°44'0 0.0
2016-Aug-17 17:33N 51°57' E 003°44'0 0.1
2016-Aug-17 16:33N 51°57' E 003°44'0 0.1
2016-Aug-17 15:33N 51°57' E 003°44'0 0.0
2016-Aug-17 14:21N 51°57' E 003°44'0 0.0
2016-Aug-17 13:33N 51°57' E 003°44'0 0.0
2016-Aug-17 12:33N 51°57' E 003°44'0 0.1
2016-Aug-17 11:33N 51°57' E 003°44'0 0.0
2016-Aug-17 10:31N 51°57' E 003°44'0 0.0
2016-Aug-17 09:31N 51°57' E 003°44'0 0.0
2016-Aug-17 08:30N 51°57' E 003°44'0 0.0
2016-Aug-17 07:30N 51°57' E 003°44'0 0.0
2016-Aug-17 06:19N 51°57' E 003°44'0 0.0
2016-Aug-17 05:33N 51°57' E 003°44'0 0.0
2016-Aug-17 04:33N 51°57' E 003°44'0 0.1
2016-Aug-17 02:31N 51°57' E 003°44'0 0.0
2016-Aug-17 01:30N 51°57' E 003°44'0 0.0
2016-Aug-17 00:21N 51°57' E 003°44'0 0.1
2016-Aug-16 23:31N 51°57' E 003°44'0 0.0
2016-Aug-16 22:28N 51°57' E 003°44'0 0.0
2016-Aug-16 21:33N 51°57' E 003°44'0 0.0
2016-Aug-16 20:33N 51°57' E 003°44'0 0.0
2016-Aug-16 19:33N 51°57' E 003°44'0 0.0
2016-Aug-16 18:28N 51°57' E 003°44'0 0.0
2016-Aug-16 17:27N 51°57' E 003°44'0 0.0
2016-Aug-16 16:28N 51°57' E 003°44'0 0.0
2016-Aug-16 15:33N 51°57' E 003°44'0 0.1
2016-Aug-16 14:33N 51°57' E 003°44'0 0.0
2016-Aug-16 13:33N 51°57' E 003°44'0 0.0
2016-Aug-16 10:33N 51°57' E 003°44'0 0.0
2016-Aug-16 09:33N 51°57' E 003°44'0 0.0
2016-Aug-16 08:07N 51°57' E 003°44'0 0.0
2016-Aug-16 07:31N 51°57' E 003°44'0 0.0
2016-Aug-16 04:28N 51°57' E 003°44'0 0.0
2016-Aug-16 03:34N 51°57' E 003°44'0 0.1
2016-Aug-16 02:31N 51°57' E 003°44'0 0.0
2016-Aug-16 01:25N 51°57' E 003°44'0 0.0
2016-Aug-16 00:33N 51°57' E 003°44'0 0.1
2016-Aug-15 23:25N 51°57' E 003°44'0 0.1
2016-Aug-15 22:28N 51°57' E 003°44'0 0.0
2016-Aug-15 21:27N 51°57' E 003°44'0 0.0
2016-Aug-15 20:19N 51°57' E 003°44'0 0.0
2016-Aug-15 18:33N 51°57' E 003°44'0 0.0
2016-Aug-15 17:31N 51°57' E 003°44'0 0.0
2016-Aug-15 16:15N 51°57' E 003°44'0 0.1
2016-Aug-15 14:33N 51°57' E 003°44'0 0.0
2016-Aug-15 13:25N 51°57' E 003°44'0 0.0
2016-Aug-15 12:25N 51°57' E 003°44'0 0.0
2016-Aug-15 11:25N 51°57' E 003°44'0 0.1
2016-Aug-15 10:07N 51°57' E 003°44'0 0.0
2016-Aug-15 09:30N 51°57' E 003°44'0 0.0
2016-Aug-15 08:31N 51°57' E 003°44'0 0.0
2016-Aug-15 07:07N 51°57' E 003°44'0 0.0
2016-Aug-15 06:19N 51°57' E 003°44'0 0.0
2016-Aug-15 04:30N 51°57' E 003°44'0 0.0
2016-Aug-15 03:33N 51°57' E 003°44'0 0.0
2016-Aug-15 02:25N 51°57' E 003°44'0 0.0
2016-Aug-15 01:28N 51°57' E 003°44'  
Track history (hours):
 
Tides and Currents Weather Stations Pressure Air Temp Water Temp Dewpoint Dewpoint Depression Visibility Wind Speed Wind Dir Waves Ship Positions

LS Concorde

Last reported at 2016-Aug-25 00:31 UTC. Time now 2016-Aug-25 00:55 UTC.
Position N 49°28' W 000°05'.

Length 99 m; draft 6.5 m.

Type: Tanker. MMSI: 236329000.

Date/timePositionNaut miles runAvg speedWind from/ knotsBaromVisibWave heightAir tempDewpointWater temp
2016-Aug-25 00:31N 49°28' W 000°05'0 0.1
2016-Aug-24 23:31N 49°28' W 000°05'0 0.1
2016-Aug-24 22:31N 49°28' W 000°05'0 0.0
2016-Aug-24 21:31N 49°28' W 000°05'0 0.0
2016-Aug-24 20:31N 49°28' W 000°05'0 0.0
2016-Aug-24 19:31N 49°28' W 000°05'0 0.0
2016-Aug-24 18:31N 49°28' W 000°05'0 0.0
2016-Aug-24 17:31N 49°28' W 000°05'0 0.1
2016-Aug-24 16:31N 49°28' W 000°05'0 0.1
2016-Aug-24 15:31N 49°28' W 000°05'0 0.0
2016-Aug-24 14:31N 49°28' W 000°05'0 0.0
2016-Aug-24 13:28N 49°28' W 000°05'0 0.0
2016-Aug-24 12:31N 49°28' W 000°05'0 0.0
2016-Aug-24 11:31N 49°28' W 000°05'0 0.1
2016-Aug-24 10:31N 49°28' W 000°05'0 0.1
2016-Aug-24 09:31N 49°28' W 000°05'0 0.0
2016-Aug-24 08:31N 49°28' W 000°05'0 0.0
2016-Aug-24 07:31N 49°28' W 000°05'0 0.0
2016-Aug-24 06:31N 49°28' W 000°05'0 0.0
2016-Aug-24 04:31N 49°28' W 000°05'0 0.1
2016-Aug-24 03:31N 49°28' W 000°05'0 0.0
2016-Aug-24 02:31N 49°28' W 000°05'0 0.0
2016-Aug-24 01:31N 49°28' W 000°05'0 0.0
2016-Aug-24 00:31N 49°28' W 000°05'0 0.0
2016-Aug-23 23:31N 49°28' W 000°05'0 0.0
2016-Aug-23 22:31N 49°28' W 000°05'0 0.1
2016-Aug-23 21:31N 49°28' W 000°05'0 0.0
2016-Aug-23 20:31N 49°28' W 000°05'0 0.0
2016-Aug-23 19:31N 49°28' W 000°05'0 0.0
2016-Aug-23 18:31N 49°28' W 000°05'0 0.0
2016-Aug-23 17:31N 49°28' W 000°05'0 0.0
2016-Aug-23 16:31N 49°28' W 000°05'0 0.0
2016-Aug-23 15:31N 49°28' W 000°05'0 0.1
2016-Aug-23 14:28N 49°28' W 000°05'0 0.0
2016-Aug-23 13:31N 49°28' W 000°05'0 0.0
2016-Aug-23 12:31N 49°28' W 000°05'0 0.0
2016-Aug-23 11:31N 49°28' W 000°05'0 0.0
2016-Aug-23 10:31N 49°28' W 000°05'0 0.0
2016-Aug-23 09:31N 49°28' W 000°05'0 0.1
2016-Aug-23 08:31N 49°28' W 000°05'0 0.0
2016-Aug-23 07:31N 49°28' W 000°05'0 0.0
2016-Aug-23 06:31N 49°28' W 000°05'0 0.0
2016-Aug-23 05:31N 49°28' W 000°05'0 0.0
2016-Aug-23 04:31N 49°28' W 000°05'0 0.0
2016-Aug-23 03:31N 49°28' W 000°05'0 0.0
2016-Aug-23 02:31N 49°28' W 000°05'0 0.1
2016-Aug-23 01:31N 49°28' W 000°05'0 0.0
2016-Aug-23 00:28N 49°28' W 000°05'0 0.0
2016-Aug-22 23:33N 49°28' W 000°05'0 0.0
2016-Aug-22 22:33N 49°28' W 000°05'0 0.1
2016-Aug-22 21:33N 49°28' W 000°05'0 0.1
2016-Aug-22 20:33N 49°28' W 000°05'0 0.0
2016-Aug-22 19:33N 49°28' W 000°05'0 0.0
2016-Aug-22 18:33N 49°28' W 000°05'0 0.0
2016-Aug-22 17:33N 49°28' W 000°05'0 0.0
2016-Aug-22 16:33N 49°28' W 000°05'0 0.0
2016-Aug-22 15:33N 49°28' W 000°05'0 0.1
2016-Aug-22 14:33N 49°28' W 000°05'0 0.1
2016-Aug-22 13:33N 49°28' W 000°05'0 0.0
2016-Aug-22 12:33N 49°28' W 000°05'0 0.0
2016-Aug-22 11:33N 49°28' W 000°05'0 0.0
2016-Aug-22 10:33N 49°28' W 000°05'1 0.9
2016-Aug-22 09:34N 49°29' W 000°06'9 9.0
2016-Aug-22 08:33N 49°38' W 000°10'1110.7
2016-Aug-22 07:34N 49°48' W 000°08'9 8.8
2016-Aug-22 06:34N 49°57' W 000°07'9 8.9
2016-Aug-22 05:33N 50°06' W 000°06'10 9.5
2016-Aug-22 04:33N 50°15' W 000°05'1111.0
2016-Aug-22 03:33N 50°26' W 000°03'1010.4
2016-Aug-22 02:33N 50°30' E 000°12'38 9.0
2016-Aug-21 22:19N 50°47' E 001°06'7 9.4
2016-Aug-21 21:31N 50°51' E 001°16'9 9.7
2016-Aug-21 20:33N 50°59' E 001°24'10 9.9
2016-Aug-21 19:34N 51°06' E 001°35'1110.7
2016-Aug-21 18:34N 51°14' E 001°47'10 9.8
2016-Aug-21 17:33N 51°22' E 001°55'10 9.7
2016-Aug-21 16:34N 51°30' E 002°04'9 9.3
2016-Aug-21 15:34N 51°37' E 002°14'57 9.4
2016-Aug-21 09:32N 52°03' E 003°35'10 9.9
2016-Aug-21 08:34N 52°03' E 003°51'9 8.5
2016-Aug-21 07:34N 51°59' E 004°04'1211.8
2016-Aug-21 06:34N 51°54' E 004°21'1 1.4
2016-Aug-21 05:33N 51°53' E 004°23'0 0.0
2016-Aug-21 04:30N 51°53' E 004°23'0 0.0
2016-Aug-21 03:32N 51°53' E 004°23'0 0.0
2016-Aug-21 02:33N 51°53' E 004°23'0 0.0
2016-Aug-21 01:32N 51°53' E 004°23'0 0.0
2016-Aug-21 00:33N 51°53' E 004°23'0 0.0
2016-Aug-20 23:32N 51°53' E 004°23'0 0.0
2016-Aug-20 22:32N 51°53' E 004°23'0 0.0
2016-Aug-20 21:32N 51°53' E 004°23'0 0.0
2016-Aug-20 20:32N 51°53' E 004°23'0 0.0
2016-Aug-20 19:32N 51°53' E 004°23'0 0.0
2016-Aug-20 18:32N 51°53' E 004°23'0 0.0
2016-Aug-20 17:33N 51°53' E 004°23'0 0.0
2016-Aug-20 16:33N 51°53' E 004°23'0 0.0
2016-Aug-20 15:32N 51°53' E 004°23'0 0.0
2016-Aug-20 14:33N 51°53' E 004°23'0 0.0
2016-Aug-20 13:33N 51°53' E 004°23'0 0.0
2016-Aug-20 12:32N 51°53' E 004°23'0 0.0
2016-Aug-20 11:31N 51°53' E 004°23'0 0.0
2016-Aug-20 10:32N 51°53' E 004°23'0 0.0
2016-Aug-20 09:31N 51°53' E 004°23'0 0.0
2016-Aug-20 08:32N 51°53' E 004°23'0 0.0
2016-Aug-20 07:33N 51°53' E 004°23'0 0.0
2016-Aug-20 06:32N 51°53' E 004°23'0 0.0
2016-Aug-20 05:32N 51°53' E 004°23'0 0.0
2016-Aug-20 04:33N 51°53' E 004°23'0 0.0
2016-Aug-20 03:32N 51°53' E 004°23'0 0.0
2016-Aug-20 02:33N 51°53' E 004°23'0 0.0
2016-Aug-20 01:34N 51°53' E 004°23'4 4.3
2016-Aug-20 00:34N 51°54' E 004°16'1110.9
2016-Aug-19 23:33N 51°60' E 004°01'1010.2
2016-Aug-19 22:33N 51°58' E 003°44'1 1.0
2016-Aug-19 21:33N 51°57' E 003°44'0 0.0
2016-Aug-19 20:31N 51°57' E 003°44'0 0.1
2016-Aug-19 19:31N 51°57' E 003°44'0 0.0
2016-Aug-19 17:28N 51°57' E 003°44'0 0.0
2016-Aug-19 15:30N 51°57' E 003°44'0 0.0
2016-Aug-19 14:24N 51°57' E 003°44'0 0.0
2016-Aug-19 13:25N 51°57' E 003°44'0 0.1
2016-Aug-19 12:30N 51°57' E 003°44'0 0.1
2016-Aug-19 11:30N 51°57' E 003°44'0 0.0
2016-Aug-19 10:33N 51°57' E 003°44'0 0.0
2016-Aug-19 09:22N 51°57' E 003°44'0 0.0
2016-Aug-19 08:30N 51°57' E 003°44'0 0.0
2016-Aug-19 07:33N 51°57' E 003°44'0 0.0
2016-Aug-19 06:33N 51°57' E 003°44'0 0.0
2016-Aug-19 05:33N 51°57' E 003°44'0 0.1
2016-Aug-19 04:31N 51°57' E 003°44'0 0.0
2016-Aug-19 03:33N 51°57' E 003°44'0 0.0
2016-Aug-19 02:31N 51°57' E 003°44'0 0.0
2016-Aug-19 01:30N 51°57' E 003°44'0 0.1
2016-Aug-19 00:33N 51°57' E 003°44'0 0.0
2016-Aug-18 23:30N 51°57' E 003°44'0 0.0
2016-Aug-18 22:28N 51°57' E 003°44'0 0.0
2016-Aug-18 21:33N 51°57' E 003°44'0 0.0
2016-Aug-18 20:30N 51°57' E 003°44'0 0.0
2016-Aug-18 19:33N 51°57' E 003°44'0 0.0
2016-Aug-18 18:27N 51°57' E 003°44'0 0.0
2016-Aug-18 17:33N 51°57' E 003°44'0 0.0
2016-Aug-18 16:33N 51°57' E 003°44'0 0.1
2016-Aug-18 15:33N 51°57' E 003°44'0 0.0
2016-Aug-18 14:33N 51°57' E 003°44'0 0.0
2016-Aug-18 13:33N 51°57' E 003°44'0 0.1
2016-Aug-18 12:33N 51°57' E 003°44'0 0.1
2016-Aug-18 11:33N 51°57' E 003°44'0 0.0
2016-Aug-18 10:33N 51°57' E 003°44'0 0.0
2016-Aug-18 09:31N 51°57' E 003°44'0 0.0
2016-Aug-18 08:31N 51°57' E 003°44'0 0.0
2016-Aug-18 07:33N 51°57' E 003°44'0 0.0
2016-Aug-18 06:33N 51°57' E 003°44'0 0.0
2016-Aug-18 05:34N 51°57' E 003°44'0 0.0
2016-Aug-18 04:33N 51°57' E 003°44'0 0.1
2016-Aug-18 03:33N 51°57' E 003°44'0 0.0
2016-Aug-18 02:34N 51°57' E 003°44'0 0.0
2016-Aug-18 01:33N 51°57' E 003°44'0 0.0
2016-Aug-18 00:21N 51°57' E 003°44'0 0.1
2016-Aug-17 23:31N 51°57' E 003°44'0 0.0
2016-Aug-17 22:31N 51°57' E 003°44'0 0.0
2016-Aug-17 21:33N 51°57' E 003°44'0 0.0
2016-Aug-17 20:28N 51°57' E 003°44'0 0.0
2016-Aug-17 19:33N 51°57' E 003°44'0 0.0
2016-Aug-17 18:33N 51°57' E 003°44'0 0.0
2016-Aug-17 17:33N 51°57' E 003°44'0 0.1
2016-Aug-17 16:33N 51°57' E 003°44'0 0.1
2016-Aug-17 15:33N 51°57' E 003°44'0 0.0
2016-Aug-17 14:21N 51°57' E 003°44'0 0.0
2016-Aug-17 13:33N 51°57' E 003°44'0 0.0
2016-Aug-17 12:33N 51°57' E 003°44'0 0.1
2016-Aug-17 11:33N 51°57' E 003°44'0 0.0
2016-Aug-17 10:31N 51°57' E 003°44'0 0.0
2016-Aug-17 09:31N 51°57' E 003°44'0 0.0
2016-Aug-17 08:30N 51°57' E 003°44'0 0.0
2016-Aug-17 07:30N 51°57' E 003°44'0 0.0
2016-Aug-17 06:19N 51°57' E 003°44'0 0.0
2016-Aug-17 05:33N 51°57' E 003°44'0 0.0
2016-Aug-17 04:33N 51°57' E 003°44'0 0.1
2016-Aug-17 02:31N 51°57' E 003°44'0 0.0
2016-Aug-17 01:30N 51°57' E 003°44'0 0.0
2016-Aug-17 00:21N 51°57' E 003°44'0 0.1
2016-Aug-16 23:31N 51°57' E 003°44'0 0.0
2016-Aug-16 22:28N 51°57' E 003°44'0 0.0
2016-Aug-16 21:33N 51°57' E 003°44'0 0.0
2016-Aug-16 20:33N 51°57' E 003°44'0 0.0
2016-Aug-16 19:33N 51°57' E 003°44'0 0.0
2016-Aug-16 18:28N 51°57' E 003°44'0 0.0
2016-Aug-16 17:27N 51°57' E 003°44'0 0.0
2016-Aug-16 16:28N 51°57' E 003°44'0 0.0
2016-Aug-16 15:33N 51°57' E 003°44'0 0.1
2016-Aug-16 14:33N 51°57' E 003°44'0 0.0
2016-Aug-16 13:33N 51°57' E 003°44'0 0.0
2016-Aug-16 10:33N 51°57' E 003°44'0 0.0
2016-Aug-16 09:33N 51°57' E 003°44'0 0.0
2016-Aug-16 08:07N 51°57' E 003°44'0 0.0
2016-Aug-16 07:31N 51°57' E 003°44'0 0.0
2016-Aug-16 04:28N 51°57' E 003°44'0 0.0
2016-Aug-16 03:34N 51°57' E 003°44'0 0.1
2016-Aug-16 02:31N 51°57' E 003°44'0 0.0
2016-Aug-16 01:25N 51°57' E 003°44'0 0.0
2016-Aug-16 00:33N 51°57' E 003°44'0 0.1
2016-Aug-15 23:25N 51°57' E 003°44'0 0.1
2016-Aug-15 22:28N 51°57' E 003°44'0 0.0
2016-Aug-15 21:27N 51°57' E 003°44'0 0.0
2016-Aug-15 20:19N 51°57' E 003°44'0 0.0
2016-Aug-15 18:33N 51°57' E 003°44'0 0.0
2016-Aug-15 17:31N 51°57' E 003°44'0 0.0
2016-Aug-15 16:15N 51°57' E 003°44'0 0.1
2016-Aug-15 14:33N 51°57' E 003°44'0 0.0
2016-Aug-15 13:25N 51°57' E 003°44'0 0.0
2016-Aug-15 12:25N 51°57' E 003°44'0 0.0
2016-Aug-15 11:25N 51°57' E 003°44'0 0.1
2016-Aug-15 10:07N 51°57' E 003°44'0 0.0
2016-Aug-15 09:30N 51°57' E 003°44'0 0.0
2016-Aug-15 08:31N 51°57' E 003°44'0 0.0
2016-Aug-15 07:07N 51°57' E 003°44'0 0.0
2016-Aug-15 06:19N 51°57' E 003°44'0 0.0
2016-Aug-15 04:30N 51°57' E 003°44'0 0.0
2016-Aug-15 03:33N 51°57' E 003°44'0 0.0
2016-Aug-15 02:25N 51°57' E 003°44'0 0.0
2016-Aug-15 01:28N 51°57' E 003°44'  

Dump ship's entire track history